Time;durP1;ratioP1;P1;durP2;ratioP2;P2;SDS_P1;SDS_P2;PMS_P1;PMS_P2;Temp;Humidity;BMP_temperature;BMP_pressure;BME280_temperature;BME280_humidity;BME280_pressure;Samples;Min_cycle;Max_cycle;Signal;HPM_P1;HPM_P2
2021/10/11 00:02:06;;;;;;;6.03;1.90;;;17.40;80.90;;;;;;5009670;28;20101;-52
2021/10/11 00:04:33;;;;;;;8.68;2.63;;;17.40;82.10;;;;;;5010374;28;20022;-60
2021/10/11 00:07:03;;;;;;;14.05;2.85;;;17.30;81.80;;;;;;5010276;28;20041;-70
2021/10/11 00:09:30;;;;;;;9.93;1.80;;;17.40;80.80;;;;;;4992716;28;20026;-60
2021/10/11 00:12:07;;;;;;;8.55;2.05;;;17.40;80.80;;;;;;5010196;28;20054;-60
2021/10/11 00:14:35;;;;;;;13.68;2.45;;;17.50;80.80;;;;;;5010222;28;20031;-70
2021/10/11 00:17:02;;;;;;;5.15;1.75;;;17.50;80.70;;;;;;5010181;28;20476;-64
2021/10/11 00:19:35;;;;;;;7.70;1.98;;;17.60;80.60;;;;;;5009468;28;20357;-67
2021/10/11 00:22:04;;;;;;;10.30;2.80;;;17.60;80.70;;;;;;5009859;28;20057;-69
2021/10/11 00:24:31;;;;;;;14.88;2.40;;;17.60;80.80;;;;;;5009694;28;20022;-71
2021/10/11 00:26:59;;;;;;;9.93;2.45;;;17.60;80.90;;;;;;5009641;28;20026;-65
2021/10/11 00:29:26;;;;;;;3.33;1.45;;;17.60;81.10;;;;;;5011121;28;20383;-68
2021/10/11 00:31:53;;;;;;;4.70;1.80;;;17.60;80.80;;;;;;5012756;28;20050;-64
2021/10/11 00:34:21;;;;;;;7.25;2.22;;;17.70;80.80;;;;;;5013257;28;20115;-63
2021/10/11 00:36:51;;;;;;;7.20;1.60;;;17.70;80.80;;;;;;5013199;28;20022;-66
2021/10/11 00:39:18;;;;;;;9.10;2.33;;;17.70;80.80;;;;;;5012841;28;20022;-61
2021/10/11 00:41:46;;;;;;;7.75;1.90;;;17.70;80.80;;;;;;5013227;28;20054;-66
2021/10/11 00:44:13;;;;;;;6.95;1.70;;;17.70;81.10;;;;;;5012860;28;20022;-62
2021/10/11 00:46:41;;;;;;;9.10;1.52;;;17.70;80.90;;;;;;5012785;28;20091;-65
2021/10/11 00:49:08;;;;;;;4.80;1.92;;;17.70;80.90;;;;;;5012455;28;20067;-63
2021/10/11 00:51:35;;;;;;;6.53;2.20;;;17.70;81.10;;;;;;5013115;28;20475;-66
2021/10/11 00:54:03;;;;;;;5.18;2.03;;;17.70;81.00;;;;;;5013189;28;20061;-66
2021/10/11 00:56:31;;;;;;;5.72;1.90;;;17.70;80.90;;;;;;5012921;28;20022;-63
2021/10/11 00:58:58;;;;;;;4.75;1.88;;;17.70;81.00;;;;;;5012691;28;20018;-68
2021/10/11 01:01:26;;;;;;;4.13;1.40;;;17.80;81.00;;;;;;4994877;28;20075;-63
2021/10/11 01:03:53;;;;;;;5.68;1.65;;;17.80;81.00;;;;;;5012617;28;20030;-66
2021/10/11 01:06:21;;;;;;;5.05;1.70;;;17.80;81.00;;;;;;5012362;28;20022;-69
2021/10/11 01:08:51;;;;;;;4.60;1.90;;;17.80;81.10;;;;;;4986236;28;20070;-62
2021/10/11 01:11:18;;;;;;;5.97;1.60;;;17.90;81.80;;;;;;4994180;28;20030;-64
2021/10/11 01:13:45;;;;;;;6.38;1.58;;;17.90;81.30;;;;;;5009631;28;20034;-61
2021/10/11 01:16:13;;;;;;;4.70;1.50;;;17.90;81.20;;;;;;5011876;28;20096;-63
2021/10/11 01:18:40;;;;;;;5.32;1.98;;;17.90;81.10;;;;;;5010377;28;20025;-65
2021/10/11 01:21:07;;;;;;;5.90;1.27;;;17.90;81.10;;;;;;5010590;28;20057;-63
2021/10/11 01:23:35;;;;;;;6.07;2.10;;;17.90;81.10;;;;;;5007134;28;20059;-61
2021/10/11 01:26:02;;;;;;;4.05;1.50;;;17.90;81.10;;;;;;5010612;28;20104;-68
2021/10/11 01:28:29;;;;;;;4.68;1.50;;;17.90;81.20;;;;;;4992946;28;20108;-61
2021/10/11 01:30:57;;;;;;;7.78;2.30;;;17.90;81.10;;;;;;5011133;28;20514;-64
2021/10/11 01:33:25;;;;;;;4.90;1.95;;;17.90;81.30;;;;;;5003262;28;20068;-63
2021/10/11 01:35:52;;;;;;;4.72;2.10;;;17.90;81.20;;;;;;5011119;28;20024;-62
2021/10/11 01:38:19;;;;;;;5.88;1.75;;;18.00;81.30;;;;;;5010391;28;20034;-64
2021/10/11 01:40:47;;;;;;;3.45;1.63;;;17.90;81.30;;;;;;5010188;28;20390;-61
2021/10/11 01:43:14;;;;;;;5.10;2.20;;;17.90;81.30;;;;;;5006353;28;20038;-62
2021/10/11 01:45:46;;;;;;;7.78;1.65;;;17.90;81.40;;;;;;5010439;28;20470;-61
2021/10/11 01:48:13;;;;;;;4.53;1.65;;;17.90;81.30;;;;;;5010270;28;20042;-64
2021/10/11 01:50:40;;;;;;;8.32;1.92;;;17.90;81.30;;;;;;5010496;28;20059;-61
2021/10/11 01:53:08;;;;;;;5.38;1.90;;;17.90;81.30;;;;;;4988988;28;20045;-63
2021/10/11 01:55:35;;;;;;;4.57;2.25;;;17.90;81.30;;;;;;5010538;28;20456;-64
2021/10/11 01:58:03;;;;;;;4.70;1.42;;;18.00;81.40;;;;;;4992017;28;20033;-61
2021/10/11 02:00:30;;;;;;;9.55;2.53;;;17.90;81.40;;;;;;5010738;28;20067;-60
2021/10/11 02:02:58;;;;;;;2.45;1.15;;;18.00;81.40;;;;;;5006899;28;20473;-59
2021/10/11 02:05:25;;;;;;;7.78;2.13;;;18.00;81.50;;;;;;5008768;28;20460;-66
2021/10/11 02:07:53;;;;;;;5.25;1.83;;;17.90;81.90;;;;;;5010707;28;20041;-62
2021/10/11 02:10:20;;;;;;;7.30;2.10;;;17.90;82.00;;;;;;5011798;28;20022;-62
2021/10/11 02:12:48;;;;;;;6.25;1.67;;;18.00;82.70;;;;;;5011188;28;20057;-63
2021/10/11 02:15:15;;;;;;;3.30;1.33;;;18.00;82.00;;;;;;5010441;28;20034;-60
2021/10/11 02:17:43;;;;;;;6.88;2.45;;;17.90;81.90;;;;;;4993823;28;20030;-60
2021/10/11 02:20:10;;;;;;;5.82;1.83;;;17.90;82.10;;;;;;5011304;28;20026;-69
2021/10/11 02:22:38;;;;;;;5.35;1.83;;;18.00;82.30;;;;;;5011823;28;20094;-62
2021/10/11 02:25:06;;;;;;;4.47;2.10;;;18.00;82.10;;;;;;5011020;28;20057;-62
2021/10/11 02:27:34;;;;;;;6.95;2.58;;;18.00;82.00;;;;;;5010885;28;20160;-61
2021/10/11 02:30:01;;;;;;;4.55;1.77;;;18.00;82.00;;;;;;5011048;28;20026;-68
2021/10/11 02:32:29;;;;;;;7.43;2.03;;;18.00;81.80;;;;;;4993703;28;20074;-63
2021/10/11 02:34:56;;;;;;;8.32;1.90;;;18.10;82.10;;;;;;5010096;28;20026;-63
2021/10/11 02:37:24;;;;;;;6.85;2.20;;;18.10;82.10;;;;;;5011104;28;20055;-61
2021/10/11 02:39:54;;;;;;;5.80;1.83;;;18.10;82.20;;;;;;5011056;28;20030;-61
2021/10/11 02:42:22;;;;;;;6.65;1.90;;;18.10;82.10;;;;;;5010933;28;20030;-64
2021/10/11 02:44:50;;;;;;;5.97;2.05;;;18.20;82.00;;;;;;5011252;28;20057;-64
2021/10/11 02:47:17;;;;;;;4.78;1.70;;;18.20;82.10;;;;;;5011407;28;20551;-66
2021/10/11 02:49:45;;;;;;;6.40;1.85;;;18.20;82.20;;;;;;5005193;28;20070;-65
2021/10/11 02:52:12;;;;;;;6.38;2.40;;;18.20;82.30;;;;;;4994749;28;20124;-64
2021/10/11 02:54:45;;;;;;;6.80;2.13;;;18.20;82.40;;;;;;5013754;28;20069;-68
2021/10/11 02:57:13;;;;;;;7.18;2.28;;;18.20;82.60;;;;;;5009744;28;20034;-64
2021/10/11 02:59:40;;;;;;;7.18;1.83;;;18.20;82.70;;;;;;5012057;28;20022;-63
2021/10/11 03:02:08;;;;;;;8.13;1.95;;;18.30;82.80;;;;;;5011168;28;20057;-59
2021/10/11 03:04:35;;;;;;;7.72;2.42;;;18.30;82.70;;;;;;5010632;28;20056;-60
2021/10/11 03:07:03;;;;;;;5.95;2.15;;;18.30;82.50;;;;;;5008022;28;20062;-58
2021/10/11 03:09:31;;;;;;;8.00;2.42;;;18.30;82.50;;;;;;4992033;28;20034;-60
2021/10/11 03:11:58;;;;;;;6.72;2.25;;;18.40;82.50;;;;;;5010197;28;20029;-64
2021/10/11 03:14:26;;;;;;;7.28;1.88;;;18.40;82.20;;;;;;5011047;28;20029;-61
2021/10/11 03:16:53;;;;;;;7.30;1.90;;;18.50;82.10;;;;;;5005679;28;20028;-61
2021/10/11 03:19:21;;;;;;;3.72;1.67;;;18.50;82.00;;;;;;5010235;28;20096;-60
2021/10/11 03:21:48;;;;;;;5.15;1.90;;;18.50;81.80;;;;;;5010390;28;20026;-65
2021/10/11 03:24:16;;;;;;;4.47;2.10;;;18.60;81.70;;;;;;5010981;28;20460;-65
2021/10/11 03:26:43;;;;;;;5.40;2.33;;;18.60;81.60;;;;;;5005950;28;20091;-64
2021/10/11 03:29:11;;;;;;;5.07;1.83;;;18.60;81.50;;;;;;5009701;28;20480;-61
2021/10/11 03:31:38;;;;;;;5.85;2.30;;;18.60;81.50;;;;;;5008887;28;20026;-60
2021/10/11 03:34:06;;;;;;;5.55;1.83;;;18.60;81.50;;;;;;5010493;28;20496;-65
2021/10/11 03:36:35;;;;;;;5.25;1.73;;;18.70;81.40;;;;;;5005634;28;20025;-63
2021/10/11 03:39:02;;;;;;;4.13;1.60;;;18.70;81.30;;;;;;5009409;28;20075;-63
2021/10/11 03:41:29;;;;;;;5.53;1.67;;;18.70;81.10;;;;;;5009064;28;20022;-63
2021/10/11 03:43:57;;;;;;;5.68;1.77;;;18.70;81.10;;;;;;5008773;28;20032;-61
2021/10/11 03:46:25;;;;;;;6.95;2.30;;;18.70;81.00;;;;;;5005806;28;20034;-60
2021/10/11 03:48:52;;;;;;;4.07;1.85;;;18.70;81.00;;;;;;4991609;28;20105;-62
2021/10/11 03:51:21;;;;;;;6.53;2.08;;;18.80;81.10;;;;;;5008297;28;20108;-62
2021/10/11 03:57:01;;;;;;;4.60;1.83;;;18.70;81.10;;;;;;4966535;28;20035;-61
2021/10/11 03:59:28;;;;;;;6.22;2.00;;;18.70;81.10;;;;;;4990215;28;20038;-57
2021/10/11 04:01:56;;;;;;;4.80;2.15;;;18.80;81.30;;;;;;4990392;28;20035;-62
2021/10/11 04:04:25;;;;;;;5.97;1.90;;;18.70;81.30;;;;;;4989215;28;20023;-62
2021/10/11 04:06:55;;;;;;;5.53;1.80;;;18.70;81.40;;;;;;4989937;28;20022;-65
2021/10/11 04:09:28;;;;;;;6.05;1.77;;;18.70;81.50;;;;;;4972673;28;20544;-61
2021/10/11 04:11:55;;;;;;;4.45;1.45;;;18.70;81.60;;;;;;4972823;28;20034;-64
2021/10/11 04:14:26;;;;;;;3.97;1.52;;;18.60;81.80;;;;;;4989075;28;20031;-65
2021/10/11 04:16:53;;;;;;;6.82;2.03;;;18.60;81.90;;;;;;4990261;28;20026;-69
2021/10/11 04:19:20;;;;;;;4.20;1.52;;;18.60;82.00;;;;;;4990497;28;20038;-66
2021/10/11 04:21:48;;;;;;;3.08;1.52;;;18.60;82.00;;;;;;4990322;28;20128;-66
2021/10/11 04:24:15;;;;;;;5.15;1.95;;;18.60;82.10;;;;;;4989970;28;20095;-67
2021/10/11 04:26:42;;;;;;;4.47;1.65;;;18.60;82.30;;;;;;4989845;28;20030;-71
2021/10/11 04:29:10;;;;;;;4.45;1.35;;;18.50;82.30;;;;;;4990107;28;20357;-70
2021/10/11 04:31:37;;;;;;;6.65;2.25;;;18.50;82.30;;;;;;4990444;28;20038;-69
2021/10/11 04:34:04;;;;;;;4.97;1.85;;;18.50;82.50;;;;;;4990830;28;20054;-69
2021/10/11 04:36:32;;;;;;;3.75;1.73;;;18.40;82.50;;;;;;4990935;28;20448;-66
2021/10/11 04:38:59;;;;;;;5.30;1.55;;;18.40;82.50;;;;;;4990085;28;20461;-68
2021/10/11 04:41:27;;;;;;;6.97;1.63;;;18.40;82.50;;;;;;4989230;28;20473;-61
2021/10/11 04:43:56;;;;;;;4.93;1.70;;;18.40;83.00;;;;;;4989289;28;20155;-62
2021/10/11 04:46:23;;;;;;;6.05;1.50;;;18.30;83.10;;;;;;4989401;28;20030;-65
2021/10/11 04:48:51;;;;;;;3.42;1.55;;;18.40;83.10;;;;;;4989575;28;20027;-58
2021/10/11 04:51:19;;;;;;;5.03;1.63;;;18.30;83.00;;;;;;4989417;28;20026;-64
2021/10/11 04:53:46;;;;;;;2.95;1.35;;;18.30;83.00;;;;;;4972001;28;20054;-62
2021/10/11 04:56:14;;;;;;;4.05;1.30;;;18.30;82.90;;;;;;4989515;28;20376;-60
2021/10/11 04:58:41;;;;;;;5.00;1.67;;;18.30;83.10;;;;;;4971889;28;20105;-60
2021/10/11 05:01:08;;;;;;;4.78;1.92;;;18.30;83.10;;;;;;4989449;28;20050;-64
2021/10/11 05:03:36;;;;;;;7.82;1.73;;;18.30;83.10;;;;;;4989228;28;20385;-63
2021/10/11 05:06:04;;;;;;;4.80;1.63;;;18.30;83.20;;;;;;5007889;28;20022;-67
2021/10/11 05:08:31;;;;;;;5.07;1.80;;;18.30;83.30;;;;;;5007575;28;20087;-69
2021/10/11 05:10:59;;;;;;;4.10;1.38;;;18.30;83.20;;;;;;5007343;28;20029;-63
2021/10/11 05:13:26;;;;;;;5.93;1.48;;;18.30;83.30;;;;;;5005904;28;20049;-65
2021/10/11 05:15:54;;;;;;;6.95;1.48;;;18.20;83.30;;;;;;4990530;28;20336;-62
2021/10/11 05:18:22;;;;;;;4.53;1.73;;;18.30;83.20;;;;;;5010520;28;20041;-55
2021/10/11 05:20:50;;;;;;;4.45;1.30;;;18.30;83.20;;;;;;5010390;28;20026;-60
2021/10/11 05:23:19;;;;;;;5.05;1.67;;;18.30;83.10;;;;;;5004700;28;20726;-61
2021/10/11 05:25:47;;;;;;;4.45;1.38;;;18.30;83.10;;;;;;5009971;28;20480;-62
2021/10/11 05:28:14;;;;;;;4.20;1.58;;;18.30;83.10;;;;;;5011310;28;20034;-58
2021/10/11 05:30:42;;;;;;;3.53;1.40;;;18.30;83.10;;;;;;5011701;28;20492;-58
2021/10/11 05:33:11;;;;;;;2.88;1.30;;;18.30;83.10;;;;;;5011344;28;20085;-60
2021/10/11 05:35:39;;;;;;;3.83;1.63;;;18.30;83.00;;;;;;5005251;28;20537;-67
2021/10/11 05:38:07;;;;;;;2.45;0.90;;;18.30;83.20;;;;;;5011463;28;20030;-65
2021/10/11 05:40:34;;;;;;;8.13;1.48;;;18.40;83.00;;;;;;5011451;28;20083;-69
2021/10/11 05:43:06;;;;;;;4.47;1.15;;;18.40;82.90;;;;;;5011106;28;20044;-63
2021/10/11 05:45:34;;;;;;;4.05;1.15;;;18.40;82.80;;;;;;5011245;28;20022;-63
2021/10/11 05:48:01;;;;;;;3.72;1.10;;;18.50;82.70;;;;;;5011630;28;20049;-65
2021/10/11 05:50:29;;;;;;;2.95;1.20;;;18.40;82.70;;;;;;5011888;28;20156;-67
2021/10/11 05:52:58;;;;;;;4.38;1.00;;;18.50;82.60;;;;;;5011077;28;20475;-66
2021/10/11 05:55:26;;;;;;;3.30;1.17;;;18.50;82.60;;;;;;5011564;28;20120;-66
2021/10/11 05:57:53;;;;;;;4.00;1.30;;;18.50;82.50;;;;;;5011068;28;20051;-61
2021/10/11 06:00:20;;;;;;;2.60;1.00;;;18.50;82.50;;;;;;5011402;28;20022;-63
2021/10/11 06:02:48;;;;;;;4.13;1.00;;;18.50;82.40;;;;;;5010868;28;20160;-61
2021/10/11 06:05:15;;;;;;;6.28;2.00;;;18.50;82.40;;;;;;5011543;28;20112;-63
2021/10/11 06:07:43;;;;;;;3.25;1.20;;;18.50;82.30;;;;;;5011202;28;20101;-68
2021/10/11 06:10:10;;;;;;;3.47;1.15;;;18.50;82.30;;;;;;5011305;28;20030;-65
2021/10/11 06:12:38;;;;;;;4.22;1.30;;;18.50;82.30;;;;;;5010971;28;20038;-65
2021/10/11 06:15:10;;;;;;;4.57;1.33;;;18.50;82.20;;;;;;5010638;28;20033;-62
2021/10/11 06:17:37;;;;;;;3.88;1.33;;;18.50;82.70;;;;;;4993629;28;20098;-59
2021/10/11 06:20:05;;;;;;;3.88;1.15;;;18.60;82.60;;;;;;4993697;28;20071;-62
2021/10/11 06:22:33;;;;;;;4.30;1.08;;;18.50;82.60;;;;;;5010798;28;20487;-56
2021/10/11 06:25:03;;;;;;;3.80;1.70;;;18.50;82.60;;;;;;5010880;28;20493;-62
2021/10/11 06:27:32;;;;;;;4.63;1.10;;;18.50;82.70;;;;;;5010379;28;20816;-65
2021/10/11 06:30:00;;;;;;;4.78;1.10;;;18.50;82.80;;;;;;5011086;28;20499;-65
2021/10/11 06:32:27;;;;;;;2.72;1.27;;;18.50;82.80;;;;;;5010840;28;20033;-62
2021/10/11 06:34:55;;;;;;;4.00;1.25;;;18.40;82.80;;;;;;4993210;28;20033;-59
2021/10/11 06:37:22;;;;;;;2.65;1.23;;;18.40;82.90;;;;;;5010678;28;20087;-61
2021/10/11 06:39:50;;;;;;;5.75;1.58;;;18.40;82.80;;;;;;5010727;28;20324;-53
2021/10/11 06:42:17;;;;;;;15.80;14.10;;;18.40;82.70;;;;;;5010091;28;20376;-62
2021/10/11 06:44:46;;;;;;;7.75;3.50;;;18.40;83.30;;;;;;4986094;28;20034;-64
2021/10/11 06:47:14;;;;;;;6.30;2.30;;;18.50;82.90;;;;;;5007341;28;20036;-67
2021/10/11 06:49:46;;;;;;;5.80;3.47;;;18.50;82.80;;;;;;5007685;28;20464;-61
2021/10/11 06:52:19;;;;;;;8.38;4.90;;;18.50;82.80;;;;;;4992454;28;20038;-63
2021/10/11 06:54:46;;;;;;;17.60;9.70;;;18.50;82.60;;;;;;5003879;28;20034;-63
2021/10/11 06:57:13;;;;;;;14.07;8.88;;;18.50;82.60;;;;;;5008564;28;20033;-61
2021/10/11 06:59:42;;;;;;;20.67;12.68;;;18.50;82.50;;;;;;5005968;28;20030;-60
2021/10/11 07:02:09;;;;;;;18.48;10.68;;;18.30;82.90;;;;;;5008997;28;20037;-61
2021/10/11 07:04:37;;;;;;;14.25;8.10;;;18.30;83.30;;;;;;5005538;28;20053;-61
2021/10/11 07:07:06;;;;;;;10.65;5.25;;;18.30;83.10;;;;;;5008374;28;20038;-61
2021/10/11 07:09:33;;;;;;;11.27;5.97;;;18.30;82.40;;;;;;5007294;28;20136;-62
2021/10/11 07:12:01;;;;;;;11.38;4.93;;;18.30;82.40;;;;;;5008764;28;20480;-62
2021/10/11 07:14:28;;;;;;;8.88;4.60;;;18.30;82.30;;;;;;5008081;28;20022;-61
2021/10/11 07:16:56;;;;;;;9.07;4.00;;;18.30;82.20;;;;;;5008448;28;20018;-62
2021/10/11 07:19:23;;;;;;;8.40;3.95;;;18.30;81.30;;;;;;5009084;28;20034;-61
2021/10/11 07:21:53;;;;;;;10.15;4.35;;;18.30;81.50;;;;;;4987340;28;20018;-61
2021/10/11 07:24:20;;;;;;;8.23;3.47;;;18.20;82.30;;;;;;5008472;28;20040;-62
2021/10/11 07:26:48;;;;;;;7.50;3.85;;;18.20;80.60;;;;;;5008478;28;20022;-62
2021/10/11 07:29:15;;;;;;;11.85;4.38;;;18.30;81.70;;;;;;5008859;28;20387;-63
2021/10/11 07:31:42;;;;;;;14.57;3.10;;;18.00;79.30;;;;;;5004338;28;20026;-62
2021/10/11 07:34:09;;;;;;;9.32;2.95;;;17.90;79.40;;;;;;5008493;28;20033;-63
2021/10/11 07:36:37;;;;;;;49.20;34.55;;;17.90;80.90;;;;;;5007598;28;20024;-61
2021/10/11 07:39:05;;;;;;;9.23;5.63;;;17.90;80.40;;;;;;5009102;28;20034;-63
2021/10/11 07:41:32;;;;;;;31.20;27.88;;;18.00;80.90;;;;;;5010150;28;20022;-61
2021/10/11 07:43:59;;;;;;;28.52;23.90;;;18.10;78.80;;;;;;5010256;28;20022;-61
2021/10/11 07:46:27;;;;;;;19.25;14.02;;;18.20;79.80;;;;;;5009885;28;20030;-62
2021/10/11 07:48:54;;;;;;;19.33;14.50;;;18.30;79.70;;;;;;5009456;28;20093;-61
2021/10/11 07:51:21;;;;;;;14.32;11.48;;;18.20;79.10;;;;;;4991710;28;20137;-60
2021/10/11 07:53:49;;;;;;;18.00;15.93;;;18.30;79.00;;;;;;5009625;28;20057;-61
2021/10/11 07:56:17;;;;;;;28.80;23.60;;;18.30;79.90;;;;;;5009730;28;20380;-60
2021/10/11 07:58:45;;;;;;;25.48;9.88;;;18.30;79.40;;;;;;5001868;28;20046;-60
2021/10/11 08:01:12;;;;;;;12.57;8.48;;;18.20;79.10;;;;;;5006744;28;20037;-60
2021/10/11 08:03:43;;;;;;;18.33;13.00;;;18.30;79.80;;;;;;5007948;28;20030;-54
2021/10/11 08:06:10;;;;;;;25.83;20.02;;;18.20;80.40;;;;;;5008314;28;20022;-59
2021/10/11 08:08:38;;;;;;;29.20;24.75;;;18.30;79.90;;;;;;5007250;28;20077;-62
2021/10/11 08:11:06;;;;;;;18.50;15.07;;;18.30;79.40;;;;;;5003968;28;20026;-60
2021/10/11 08:13:33;;;;;;;16.67;11.43;;;18.30;79.80;;;;;;5008299;28;20037;-62
2021/10/11 08:16:01;;;;;;;21.08;12.45;;;18.30;78.80;;;;;;5008546;28;20026;-62
2021/10/11 08:18:28;;;;;;;17.95;10.77;;;18.30;79.30;;;;;;5007178;28;20037;-60
2021/10/11 08:20:56;;;;;;;20.45;10.77;;;18.30;79.80;;;;;;5000011;28;20041;-61
2021/10/11 08:23:23;;;;;;;22.73;10.80;;;18.30;80.60;;;;;;4991084;28;20030;-60
2021/10/11 08:25:51;;;;;;;16.70;11.38;;;18.40;80.80;;;;;;5007630;28;20125;-50
2021/10/11 08:28:18;;;;;;;15.73;10.88;;;18.30;81.50;;;;;;5007303;28;20082;-53
2021/10/11 08:30:46;;;;;;;17.60;10.13;;;18.30;81.60;;;;;;5003818;28;20022;-53
2021/10/11 08:33:13;;;;;;;12.68;6.50;;;18.30;81.60;;;;;;5008068;28;20395;-57
2021/10/11 08:35:41;;;;;;;12.88;6.32;;;18.30;76.80;;;;;;5008337;28;20022;-56
2021/10/11 08:38:08;;;;;;;17.63;7.80;;;18.20;79.80;;;;;;5007401;28;20112;-55
2021/10/11 08:40:36;;;;;;;11.77;6.30;;;18.20;81.40;;;;;;5000489;28;20038;-60
2021/10/11 08:43:04;;;;;;;13.95;5.18;;;18.20;75.20;;;;;;5008104;28;20116;-61
2021/10/11 08:45:31;;;;;;;16.73;6.03;;;18.20;81.10;;;;;;4987208;28;20109;-62
2021/10/11 08:47:58;;;;;;;39.88;6.32;;;18.20;81.30;;;;;;5008133;28;20018;-59
2021/10/11 08:50:26;;;;;;;17.10;4.80;;;18.30;82.10;;;;;;5009307;28;20026;-58
2021/10/11 08:52:53;;;;;;;31.90;12.23;;;18.40;82.30;;;;;;5012945;28;20034;-64
2021/10/11 08:55:21;;;;;;;26.83;21.08;;;18.40;81.90;;;;;;5013300;28;20863;-61
2021/10/11 08:57:48;;;;;;;57.92;52.08;;;18.40;82.70;;;;;;5013168;28;20026;-56
2021/10/11 09:00:18;;;;;;;28.10;17.48;;;18.40;82.20;;;;;;5013448;28;20026;-67
2021/10/11 09:02:57;;;;;;;21.02;14.32;;;18.40;83.50;;;;;;5012621;28;20473;-66
2021/10/11 09:05:33;;;;;;;21.00;10.68;;;18.50;84.60;;;;;;5009545;28;20030;-51
2021/10/11 09:08:07;;;;;;;18.33;7.63;;;18.50;83.20;;;;;;5010079;28;20026;-51
2021/10/11 09:10:54;;;;;;;14.90;9.77;;;18.60;83.10;;;;;;5010795;28;20110;-51
2021/10/11 09:13:29;;;;;;;12.80;8.27;;;18.50;82.50;;;;;;5009977;28;20473;-52
2021/10/11 09:16:11;;;;;;;93.90;84.22;;;18.50;81.60;;;;;;5010188;28;20022;-51
2021/10/11 09:18:42;;;;;;;18.35;11.93;;;18.50;81.80;;;;;;5009863;28;20071;-67
2021/10/11 09:21:10;;;;;;;20.13;12.38;;;18.50;81.40;;;;;;5009908;28;20106;-63
2021/10/11 09:23:37;;;;;;;18.05;11.27;;;18.50;80.60;;;;;;5010665;28;20029;-65
2021/10/11 09:26:21;;;;;;;19.75;12.48;;;18.50;80.20;;;;;;5000386;28;20037;-64
2021/10/11 09:28:55;;;;;;;39.08;17.48;;;18.50;80.90;;;;;;5007336;28;20543;-64
2021/10/11 09:31:42;;;;;;;30.00;19.58;;;18.50;80.80;;;;;;4990822;28;20038;-66
2021/10/11 09:34:10;;;;;;;33.80;21.88;;;18.50;80.80;;;;;;5009913;28;20042;-68
2021/10/11 09:36:39;;;;;;;36.97;22.63;;;18.50;80.40;;;;;;5007075;28;20030;-62
2021/10/11 09:39:06;;;;;;;39.83;24.42;;;18.50;79.90;;;;;;5007622;28;20064;-63
2021/10/11 09:41:34;;;;;;;37.58;23.83;;;18.50;79.70;;;;;;5006283;28;20104;-66
2021/10/11 09:44:11;;;;;;;37.95;25.88;;;18.50;79.60;;;;;;5008555;28;20025;-63
2021/10/11 09:46:46;;;;;;;40.35;25.65;;;18.50;79.50;;;;;;5007538;28;20030;-69
2021/10/11 09:49:14;;;;;;;33.90;25.50;;;18.50;79.20;;;;;;5010673;28;20149;-69
2021/10/11 09:51:43;;;;;;;41.35;26.30;;;18.50;79.10;;;;;;5008428;28;20022;-65
2021/10/11 09:54:11;;;;;;;40.53;24.55;;;18.50;78.90;;;;;;5009405;28;20053;-63
2021/10/11 09:56:39;;;;;;;39.03;24.63;;;18.50;78.80;;;;;;5012099;28;20033;-67
2021/10/11 09:59:10;;;;;;;35.13;23.63;;;18.50;78.60;;;;;;5011535;28;20125;-62
2021/10/11 10:01:42;;;;;;;30.83;22.05;;;18.50;78.30;;;;;;5008140;28;20014;-65
2021/10/11 10:04:26;;;;;;;34.67;23.25;;;18.50;78.20;;;;;;5007313;28;20082;-68
2021/10/11 10:06:55;;;;;;;30.50;21.58;;;18.40;78.20;;;;;;5011851;28;20068;-65
2021/10/11 10:09:26;;;;;;;35.05;21.48;;;18.50;78.00;;;;;;5012162;28;20022;-64
2021/10/11 10:11:53;;;;;;;32.13;21.20;;;18.40;77.90;;;;;;5009638;28;20057;-64
2021/10/11 10:14:28;;;;;;;28.60;18.90;;;18.40;77.80;;;;;;5010948;28;20034;-63
2021/10/11 10:16:56;;;;;;;31.85;20.88;;;18.40;77.70;;;;;;5008795;28;20053;-63
2021/10/11 10:19:39;;;;;;;29.77;19.23;;;18.40;77.50;;;;;;5010947;28;20047;-70
2021/10/11 10:22:14;;;;;;;32.95;19.58;;;18.50;77.40;;;;;;5004864;28;20026;-65
2021/10/11 10:24:41;;;;;;;32.10;17.20;;;18.40;77.00;;;;;;5009736;28;20022;-60
2021/10/11 10:27:12;;;;;;;23.10;16.63;;;18.50;77.10;;;;;;5010783;28;20026;-69
2021/10/11 10:29:50;;;;;;;24.77;16.45;;;18.40;76.90;;;;;;5011057;28;20022;-67
2021/10/11 10:32:19;;;;;;;24.38;15.65;;;18.40;76.40;;;;;;5006024;28;20034;-63
2021/10/11 10:35:00;;;;;;;29.83;16.45;;;18.40;76.70;;;;;;5009849;28;20087;-69
2021/10/11 10:37:38;;;;;;;25.10;14.43;;;18.40;76.60;;;;;;5008212;28;20123;-68
2021/10/11 10:40:11;;;;;;;24.90;15.27;;;18.50;76.50;;;;;;5011041;28;20030;-62
2021/10/11 10:42:39;;;;;;;25.35;15.38;;;18.50;76.40;;;;;;4987305;28;20380;-66
2021/10/11 10:45:17;;;;;;;24.63;14.52;;;18.50;76.50;;;;;;4991899;28;20042;-69
2021/10/11 10:47:45;;;;;;;20.98;14.25;;;18.50;76.30;;;;;;5010464;28;20376;-64
2021/10/11 10:50:14;;;;;;;20.58;13.10;;;18.50;75.70;;;;;;5011130;28;20416;-63
2021/10/11 10:52:45;;;;;;;23.15;12.65;;;18.50;76.20;;;;;;5004942;28;20498;-60
2021/10/11 10:55:13;;;;;;;19.70;12.85;;;18.50;76.10;;;;;;5010991;28;20438;-61
2021/10/11 10:57:41;;;;;;;19.70;12.77;;;18.50;76.00;;;;;;5010703;28;20041;-61
2021/10/11 11:00:14;;;;;;;21.02;12.30;;;18.40;75.90;;;;;;5010437;28;20496;-66
2021/10/11 11:02:49;;;;;;;19.40;13.60;;;18.40;75.80;;;;;;4993014;28;20039;-64
2021/10/11 11:05:21;;;;;;;23.33;12.60;;;18.40;75.70;;;;;;5010976;28;20357;-66
2021/10/11 11:07:53;;;;;;;19.30;12.13;;;18.40;75.70;;;;;;5010709;28;20034;-65
2021/10/11 11:10:40;;;;;;;17.05;10.75;;;18.40;75.70;;;;;;4993951;28;20057;-67
2021/10/11 11:13:16;;;;;;;16.63;10.25;;;18.40;75.60;;;;;;5010620;28;20033;-62
2021/10/11 11:15:52;;;;;;;16.85;9.93;;;18.40;75.60;;;;;;5010894;28;20090;-64
2021/10/11 11:18:22;;;;;;;17.83;10.35;;;18.40;75.50;;;;;;5010692;28;20414;-63
2021/10/11 11:20:51;;;;;;;16.05;9.52;;;18.30;75.50;;;;;;5009772;28;20433;-63
2021/10/11 11:23:31;;;;;;;14.88;9.95;;;18.30;75.40;;;;;;5010543;28;20034;-62
2021/10/11 11:26:03;;;;;;;14.38;8.93;;;18.30;75.50;;;;;;5010505;28;20026;-63
2021/10/11 11:28:30;;;;;;;13.35;8.95;;;18.30;75.50;;;;;;4993502;28;20037;-64
2021/10/11 11:31:10;;;;;;;16.25;9.55;;;18.20;75.50;;;;;;5010461;28;20392;-65
2021/10/11 11:33:47;;;;;;;16.20;8.50;;;18.20;75.50;;;;;;5010544;28;20029;-67
2021/10/11 11:36:16;;;;;;;13.43;8.57;;;18.20;75.50;;;;;;5002844;28;20058;-66
2021/10/11 11:38:43;;;;;;;12.57;7.82;;;18.20;75.60;;;;;;5007100;28;20026;-60
2021/10/11 11:41:11;;;;;;;13.70;8.45;;;18.20;75.70;;;;;;5009166;28;20402;-61
2021/10/11 11:43:41;;;;;;;13.95;8.93;;;18.20;75.60;;;;;;5005480;28;20450;-62
2021/10/11 11:46:12;;;;;;;14.93;8.55;;;18.20;75.70;;;;;;5002114;28;20022;-62
2021/10/11 11:48:44;;;;;;;12.95;7.95;;;18.20;75.70;;;;;;5005116;28;20068;-61
2021/10/11 11:51:15;;;;;;;;;;;18.20;75.70;;;;;;5009770;28;20387;-67
2021/10/11 11:53:43;;;;;;;12.45;7.80;;;18.20;75.70;;;;;;4987982;28;19918;-61
2021/10/11 11:56:13;;;;;;;14.15;8.63;;;18.20;75.50;;;;;;5001355;28;20037;-66
2021/10/11 11:58:47;;;;;;;11.57;7.35;;;18.20;75.60;;;;;;5005156;28;20492;-64
2021/10/11 12:01:20;;;;;;;10.90;6.97;;;18.20;75.50;;;;;;5009088;28;20117;-63
2021/10/11 12:04:08;;;;;;;11.43;7.40;;;18.30;75.50;;;;;;5006003;28;20030;-64
2021/10/11 12:06:36;;;;;;;11.27;7.05;;;18.20;75.40;;;;;;4986159;28;20127;-61
2021/10/11 12:09:04;;;;;;;13.10;7.85;;;18.30;75.50;;;;;;5008491;28;20022;-62
2021/10/11 12:11:32;;;;;;;10.50;6.57;;;18.20;75.30;;;;;;5009052;28;20087;-60
2021/10/11 12:14:01;;;;;;;13.13;7.75;;;18.20;75.30;;;;;;5008607;28;20049;-65
2021/10/11 12:16:29;;;;;;;11.38;6.82;;;18.30;75.40;;;;;;5003572;28;20037;-66
2021/10/11 12:19:00;;;;;;;11.45;6.63;;;18.30;75.30;;;;;;5008070;28;20212;-68
2021/10/11 12:21:39;;;;;;;9.88;6.10;;;18.20;75.30;;;;;;5008787;28;20059;-61
2021/10/11 12:24:12;;;;;;;10.68;6.55;;;18.20;75.20;;;;;;5008490;28;20093;-59
2021/10/11 12:27:06;;;;;;;9.60;6.20;;;18.20;75.30;;;;;;5006595;28;20029;-60
2021/10/11 12:29:37;;;;;;;11.82;6.55;;;18.20;75.20;;;;;;5012479;28;20058;-64
2021/10/11 12:32:09;;;;;;;10.60;5.65;;;18.20;75.30;;;;;;5012662;28;20120;-62
2021/10/11 12:34:39;;;;;;;10.80;5.38;;;18.20;75.30;;;;;;5007918;28;20518;-60
2021/10/11 12:37:12;;;;;;;11.57;6.78;;;18.20;75.40;;;;;;5010455;28;20041;-62
2021/10/11 12:39:45;;;;;;;9.60;5.90;;;18.20;75.40;;;;;;5012003;28;20056;-63
2021/10/11 12:42:24;;;;;;;10.73;5.70;;;18.20;75.40;;;;;;5011969;28;20243;-68
2021/10/11 12:44:55;;;;;;;8.15;5.85;;;18.20;75.40;;;;;;5003673;28;20083;-63
2021/10/11 12:47:27;;;;;;;8.82;5.88;;;18.20;75.50;;;;;;5008878;28;20022;-62
2021/10/11 12:49:59;;;;;;;9.70;5.85;;;18.20;75.40;;;;;;5013035;28;20064;-63
2021/10/11 12:52:46;;;;;;;12.10;5.60;;;18.10;75.40;;;;;;4995007;28;20396;-62
2021/10/11 12:55:19;;;;;;;9.93;4.90;;;18.10;75.40;;;;;;5012660;28;20080;-62